createdAt,value
2019-02-27T00:01:05.125Z,3.17
2019-02-27T00:03:32.479Z,3.47
2019-02-27T00:05:59.697Z,2.87
2019-02-27T00:08:27.520Z,3.37
2019-02-27T00:10:54.847Z,3.37
2019-02-27T00:13:24.752Z,3.37
2019-02-27T00:15:51.345Z,3.77
2019-02-27T00:18:18.469Z,3.80
2019-02-27T00:20:45.713Z,3.37
2019-02-27T00:23:13.002Z,2.90
2019-02-27T00:25:40.182Z,2.63
2019-02-27T00:28:07.441Z,2.60
2019-02-27T00:30:37.927Z,2.87
2019-02-27T00:33:03.858Z,2.30
2019-02-27T00:35:31.140Z,2.40
2019-02-27T00:37:58.288Z,2.30
2019-02-27T00:40:25.543Z,2.87
2019-02-27T00:42:54.301Z,2.50
2019-02-27T00:45:21.926Z,2.53
2019-02-27T00:47:53.008Z,2.50
2019-02-27T00:50:18.312Z,2.27
2019-02-27T00:52:45.586Z,2.50
2019-02-27T00:55:12.839Z,2.77
2019-02-27T00:57:40.053Z,2.60
2019-02-27T01:00:10.305Z,2.40
2019-02-27T01:02:37.530Z,2.70
2019-02-27T01:05:06.231Z,2.43
2019-02-27T01:07:34.123Z,2.67
2019-02-27T01:10:01.955Z,2.20
2019-02-27T01:12:29.293Z,2.27
2019-02-27T01:14:56.477Z,2.33
2019-02-27T01:17:24.422Z,2.53
2019-02-27T01:19:51.761Z,2.67
2019-02-27T01:22:18.884Z,2.30
2019-02-27T01:24:49.887Z,2.10
2019-02-27T01:27:15.195Z,2.43
2019-02-27T01:29:42.417Z,2.33
2019-02-27T01:32:09.683Z,2.20
2019-02-27T01:34:36.802Z,2.27
2019-02-27T01:37:04.050Z,2.67
2019-02-27T01:39:31.318Z,2.27
2019-02-27T01:41:58.641Z,2.13
2019-02-27T01:44:25.963Z,2.27
2019-02-27T01:46:54.627Z,2.13
2019-02-27T01:49:21.962Z,2.30
2019-02-27T01:51:49.179Z,1.93
2019-02-27T01:54:16.322Z,1.90
2019-02-27T01:56:43.560Z,2.10
2019-02-27T01:59:10.822Z,2.17
2019-02-27T02:01:37.948Z,1.97
2019-02-27T02:04:05.120Z,2.60
2019-02-27T02:06:32.958Z,1.90
2019-02-27T02:09:30.308Z,2.47
2019-02-27T02:11:57.459Z,1.90
2019-02-27T02:15:12.640Z,1.70
2019-02-27T02:18:18.730Z,1.80
2019-02-27T02:21:05.816Z,1.87
2019-02-27T02:23:54.446Z,1.90
2019-02-27T02:27:18.441Z,1.77
2019-02-27T02:30:29.418Z,1.90
2019-02-27T02:33:08.412Z,2.20
2019-02-27T02:36:29.372Z,1.87
2019-02-27T02:39:09.221Z,1.80
2019-02-27T02:42:17.079Z,1.80
2019-02-27T02:45:11.604Z,1.90
2019-02-27T02:48:07.643Z,1.60
2019-02-27T02:51:18.500Z,1.77
2019-02-27T02:54:16.596Z,1.80
2019-02-27T02:57:10.427Z,1.60
2019-02-27T02:59:59.971Z,1.43
2019-02-27T03:02:52.765Z,1.97
2019-02-27T03:05:50.236Z,1.90
2019-02-27T03:08:46.322Z,1.77
2019-02-27T03:11:54.224Z,1.90
2019-02-27T03:15:02.643Z,2.50
2019-02-27T03:18:08.519Z,1.93
2019-02-27T03:20:51.774Z,1.50
2019-02-27T03:24:04.070Z,1.50
2019-02-27T03:27:08.424Z,1.83
2019-02-27T03:30:14.740Z,2.10
2019-02-27T03:33:27.086Z,1.73
2019-02-27T03:36:25.297Z,1.80
2019-02-27T03:39:07.995Z,1.80
2019-02-27T03:42:10.943Z,1.67
2019-02-27T03:45:16.361Z,1.80
2019-02-27T03:48:35.450Z,1.93
2019-02-27T03:51:44.743Z,1.50
2019-02-27T03:54:27.249Z,1.50
2019-02-27T03:57:20.247Z,2.10
2019-02-27T04:00:32.916Z,1.63
2019-02-27T04:03:18.534Z,1.50
2019-02-27T04:06:22.276Z,1.67
2019-02-27T04:08:56.676Z,1.90
2019-02-27T04:11:24.002Z,1.50
2019-02-27T04:13:51.337Z,1.60
2019-02-27T04:16:18.594Z,1.60
2019-02-27T04:18:45.779Z,1.20
2019-02-27T04:21:12.906Z,1.60
2019-02-27T04:23:40.154Z,1.50
2019-02-27T04:26:07.376Z,1.87
2019-02-27T04:28:34.634Z,2.07
2019-02-27T04:31:01.889Z,1.83
2019-02-27T04:33:29.120Z,1.60
2019-02-27T04:35:56.373Z,1.50
2019-02-27T04:38:25.075Z,1.67
2019-02-27T04:40:52.762Z,1.80
2019-02-27T04:43:19.994Z,1.70
2019-02-27T04:45:47.604Z,1.70
2019-02-27T04:48:15.032Z,1.47
2019-02-27T04:50:44.161Z,1.57
2019-02-27T04:53:11.402Z,1.63
2019-02-27T04:55:38.554Z,1.60
2019-02-27T04:58:08.670Z,1.70
2019-02-27T05:00:34.921Z,1.50
2019-02-27T05:03:02.042Z,1.40
2019-02-27T05:05:29.313Z,1.67
2019-02-27T05:07:56.588Z,1.87
2019-02-27T05:10:23.856Z,1.50
2019-02-27T05:12:50.969Z,1.70
2019-02-27T05:15:18.211Z,1.77
2019-02-27T05:17:45.377Z,1.80
2019-02-27T05:20:12.722Z,2.00
2019-02-27T05:22:40.065Z,2.03
2019-02-27T05:25:07.203Z,2.43
2019-02-27T05:27:34.342Z,1.80
2019-02-27T05:30:01.575Z,1.90
2019-02-27T05:32:28.903Z,2.00
2019-02-27T05:34:56.175Z,1.70
2019-02-27T05:37:23.460Z,1.77
2019-02-27T05:39:51.224Z,1.80
2019-02-27T05:42:18.959Z,1.77
2019-02-27T05:44:46.084Z,1.60
2019-02-27T05:47:13.311Z,2.00
2019-02-27T05:49:40.479Z,1.80
2019-02-27T05:52:07.831Z,1.70
2019-02-27T05:54:35.092Z,2.20
2019-02-27T05:57:02.296Z,1.90
2019-02-27T05:59:29.933Z,2.07
2019-02-27T06:01:57.208Z,1.90
2019-02-27T06:04:25.219Z,1.67
2019-02-27T06:06:52.890Z,2.13
2019-02-27T06:09:20.167Z,1.60
2019-02-27T06:11:47.440Z,2.10
2019-02-27T06:14:14.788Z,1.80
2019-02-27T06:16:41.939Z,2.00
2019-02-27T06:19:09.164Z,1.80
2019-02-27T06:21:36.415Z,1.73
2019-02-27T06:24:03.551Z,1.87
2019-02-27T06:26:32.384Z,2.00
2019-02-27T06:28:59.990Z,1.63
2019-02-27T06:31:27.257Z,2.07
2019-02-27T06:33:54.507Z,2.03
2019-02-27T06:36:21.644Z,1.60
2019-02-27T06:38:48.974Z,1.67
2019-02-27T06:41:16.369Z,1.87
2019-02-27T06:43:43.539Z,2.00
2019-02-27T06:46:10.775Z,1.97
2019-02-27T06:48:38.033Z,2.00
2019-02-27T06:51:05.203Z,1.70
2019-02-27T06:53:32.458Z,2.03
2019-02-27T06:56:02.774Z,2.20
2019-02-27T06:58:29.053Z,1.83
2019-02-27T07:00:56.201Z,2.00
2019-02-27T07:03:23.432Z,2.27
2019-02-27T07:05:50.576Z,1.77
2019-02-27T07:08:17.700Z,2.60
2019-02-27T07:10:44.868Z,2.23
2019-02-27T07:13:12.223Z,1.80
2019-02-27T07:15:39.490Z,1.73
2019-02-27T07:18:06.801Z,1.70
2019-02-27T07:20:34.096Z,2.07
2019-02-27T07:23:04.991Z,1.77
2019-02-27T07:25:32.223Z,1.90
2019-02-27T07:27:59.476Z,1.97
2019-02-27T07:30:26.914Z,1.83
2019-02-27T07:32:55.027Z,1.70
2019-02-27T07:35:26.377Z,1.67
2019-02-27T07:37:53.558Z,2.30
2019-02-27T07:40:21.647Z,2.20
2019-02-27T07:42:48.990Z,1.80
2019-02-27T07:45:16.500Z,2.00
2019-02-27T07:47:43.785Z,2.00
2019-02-27T07:50:12.345Z,2.10
2019-02-27T07:52:39.613Z,2.33
2019-02-27T07:55:18.602Z,2.13
2019-02-27T07:57:35.986Z,1.70
2019-02-27T08:00:04.057Z,1.90
2019-02-27T08:02:33.724Z,1.80
2019-02-27T08:05:00.378Z,1.67
2019-02-27T08:07:27.690Z,1.60
2019-02-27T08:09:54.971Z,1.60
2019-02-27T08:12:22.198Z,1.73
2019-02-27T08:14:49.446Z,1.42
2019-02-27T08:17:17.804Z,1.92
2019-02-27T08:19:46.095Z,1.60
2019-02-27T08:22:13.343Z,1.57
2019-02-27T08:24:41.033Z,1.87
2019-02-27T08:27:09.624Z,1.55
2019-02-27T08:29:37.418Z,2.02
2019-02-27T08:32:05.477Z,2.05
2019-02-27T08:34:32.814Z,1.77
2019-02-27T08:37:00.052Z,1.62
2019-02-27T08:39:27.310Z,1.82
2019-02-27T08:41:54.463Z,2.58
2019-02-27T08:44:21.689Z,2.22
2019-02-27T08:46:48.865Z,1.92
2019-02-27T08:49:16.035Z,2.08
2019-02-27T08:51:43.285Z,2.27
2019-02-27T08:54:10.551Z,2.27
2019-02-27T08:56:37.667Z,2.45
2019-02-27T08:59:05.818Z,2.77
2019-02-27T09:01:33.468Z,2.60
2019-02-27T09:04:00.624Z,2.52
2019-02-27T09:06:28.252Z,2.92
2019-02-27T09:08:55.542Z,3.00
2019-02-27T09:11:22.795Z,3.02
2019-02-27T09:13:49.931Z,4.40
2019-02-27T09:16:17.187Z,3.65
2019-02-27T09:18:44.440Z,3.10
2019-02-27T09:21:11.801Z,4.22
2019-02-27T09:23:39.091Z,3.45
2019-02-27T09:26:06.341Z,3.87
2019-02-27T09:28:33.464Z,3.70
2019-02-27T09:31:04.240Z,3.80
2019-02-27T09:33:38.370Z,3.95
2019-02-27T09:35:59.054Z,4.42
2019-02-27T09:38:26.328Z,3.75
2019-02-27T09:40:53.538Z,4.00
2019-02-27T09:43:20.808Z,3.83
2019-02-27T09:45:47.952Z,3.90
2019-02-27T09:48:15.208Z,4.35
2019-02-27T09:50:47.572Z,4.00
2019-02-27T09:53:12.664Z,4.20
2019-02-27T09:55:39.912Z,4.30
2019-02-27T09:58:11.084Z,4.42
2019-02-27T10:00:38.658Z,4.70
2019-02-27T10:03:05.817Z,4.33
2019-02-27T10:05:36.280Z,4.53
2019-02-27T10:08:02.288Z,4.10
2019-02-27T10:10:29.551Z,4.30
2019-02-27T10:12:56.823Z,4.20
2019-02-27T10:15:25.219Z,4.37
2019-02-27T10:17:53.216Z,4.30
2019-02-27T10:20:20.515Z,4.20
2019-02-27T10:22:47.649Z,4.12
2019-02-27T10:25:14.880Z,4.22
2019-02-27T10:27:42.159Z,4.42
2019-02-27T10:30:11.693Z,4.03
2019-02-27T10:32:38.451Z,4.33
2019-02-27T10:35:05.885Z,3.47
2019-02-27T10:37:33.167Z,3.52
2019-02-27T10:40:00.504Z,3.30
2019-02-27T10:42:27.796Z,2.85
2019-02-27T10:44:54.919Z,3.20
2019-02-27T10:47:22.053Z,2.83
2019-02-27T10:49:49.183Z,2.92
2019-02-27T10:52:16.328Z,2.60
2019-02-27T10:54:43.581Z,2.80
2019-02-27T10:57:10.930Z,3.50
2019-02-27T10:59:38.098Z,3.10
2019-02-27T11:02:05.330Z,2.77
2019-02-27T11:04:32.603Z,3.60
2019-02-27T11:06:59.823Z,3.02
2019-02-27T11:09:27.788Z,3.37
2019-02-27T11:11:55.029Z,3.60
2019-02-27T11:14:22.546Z,3.33
2019-02-27T11:16:49.917Z,3.52
2019-02-27T11:19:17.295Z,3.80
2019-02-27T11:21:44.619Z,3.25
2019-02-27T11:24:16.440Z,3.52
2019-02-27T11:26:40.993Z,3.40
2019-02-27T11:29:08.269Z,3.35
2019-02-27T11:31:35.507Z,4.08
2019-02-27T11:34:05.082Z,3.10
2019-02-27T11:36:31.995Z,3.12
2019-02-27T11:38:59.946Z,3.50
2019-02-27T11:41:27.163Z,3.95
2019-02-27T11:43:54.393Z,3.60
2019-02-27T11:46:21.553Z,3.30
2019-02-27T11:48:48.700Z,3.17
2019-02-27T11:51:17.562Z,3.67
2019-02-27T11:53:45.035Z,3.20
2019-02-27T11:56:12.317Z,3.25
2019-02-27T11:58:39.547Z,3.40
2019-02-27T12:01:06.776Z,3.10
2019-02-27T12:03:34.105Z,3.75
2019-02-27T12:06:01.374Z,3.67
2019-02-27T12:08:30.206Z,3.35
2019-02-27T12:10:57.552Z,3.87
2019-02-27T12:13:24.809Z,3.00
2019-02-27T12:15:51.922Z,3.27
2019-02-27T12:18:19.080Z,3.27
2019-02-27T12:20:46.376Z,3.10
2019-02-27T12:23:13.665Z,3.10
2019-02-27T12:25:40.822Z,3.60
2019-02-27T12:28:08.056Z,3.55
2019-02-27T12:30:37.427Z,3.22
2019-02-27T12:33:04.541Z,2.95
2019-02-27T12:35:31.850Z,3.10
2019-02-27T12:37:59.088Z,2.72
2019-02-27T12:40:26.357Z,3.60
2019-02-27T12:42:53.821Z,2.58
2019-02-27T12:45:21.641Z,2.92
2019-02-27T12:47:48.949Z,3.15
2019-02-27T12:50:17.619Z,3.17
2019-02-27T12:52:47.934Z,3.52
2019-02-27T12:55:14.069Z,3.20
2019-02-27T12:57:41.353Z,3.30
2019-02-27T13:00:10.771Z,3.05
2019-02-27T13:02:38.063Z,3.17
2019-02-27T13:05:06.284Z,3.50
2019-02-27T13:07:33.565Z,3.10
2019-02-27T13:10:00.709Z,3.40
2019-02-27T13:12:27.935Z,3.00
2019-02-27T13:14:55.207Z,3.60
2019-02-27T13:17:22.442Z,3.60
2019-02-27T13:19:49.579Z,3.17
2019-02-27T13:22:16.890Z,3.35
2019-02-27T13:24:44.003Z,3.60
2019-02-27T13:27:11.153Z,3.25
2019-02-27T13:29:38.420Z,3.08
2019-02-27T13:32:05.558Z,3.20
2019-02-27T13:34:32.826Z,3.10
2019-02-27T13:37:00.088Z,2.85
2019-02-27T13:39:27.241Z,3.22
2019-02-27T13:41:54.550Z,3.60
2019-02-27T13:44:21.688Z,3.50
2019-02-27T13:46:48.982Z,3.22
2019-02-27T13:49:16.246Z,3.10
2019-02-27T13:51:43.466Z,3.02
2019-02-27T13:54:10.724Z,3.05
2019-02-27T13:56:37.993Z,3.22
2019-02-27T13:59:07.476Z,3.40
2019-02-27T14:01:34.270Z,3.30
2019-02-27T14:04:01.542Z,3.30
2019-02-27T14:06:28.675Z,3.33
2019-02-27T14:08:55.825Z,3.15
2019-02-27T14:11:24.876Z,3.30
2019-02-27T14:13:52.247Z,3.37
2019-02-27T14:16:19.381Z,3.50
2019-02-27T14:18:49.815Z,3.90
2019-02-27T14:21:15.707Z,3.22
2019-02-27T14:23:43.069Z,3.52
2019-02-27T14:26:10.298Z,3.15
2019-02-27T14:28:37.439Z,3.35
2019-02-27T14:31:09.037Z,3.10
2019-02-27T14:33:33.890Z,2.80
2019-02-27T14:36:01.024Z,2.67
2019-02-27T14:38:28.278Z,3.98
2019-02-27T14:40:55.635Z,2.70
2019-02-27T14:43:27.046Z,2.92
2019-02-27T14:45:52.070Z,2.83
2019-02-27T14:48:21.421Z,2.75
2019-02-27T14:50:48.462Z,2.67
2019-02-27T14:53:16.601Z,2.98
2019-02-27T14:55:44.858Z,3.15
2019-02-27T14:58:12.148Z,2.58
2019-02-27T15:00:40.981Z,3.05
2019-02-27T15:03:08.370Z,3.35
2019-02-27T15:05:36.828Z,3.40
2019-02-27T15:08:04.478Z,2.85
2019-02-27T15:10:31.718Z,2.70
2019-02-27T15:12:58.977Z,2.87
2019-02-27T15:15:27.551Z,3.27
2019-02-27T15:17:55.057Z,2.62
2019-02-27T15:20:23.017Z,2.70
2019-02-27T15:22:52.430Z,2.20
2019-02-27T15:25:19.508Z,2.72
2019-02-27T15:27:46.826Z,2.20
2019-02-27T15:30:16.089Z,2.87
2019-02-27T15:32:43.337Z,2.70
2019-02-27T15:35:10.511Z,2.77
2019-02-27T15:37:38.025Z,3.22
2019-02-27T15:40:06.122Z,2.85
2019-02-27T15:42:33.352Z,2.85
2019-02-27T15:45:00.622Z,3.20
2019-02-27T15:47:30.449Z,2.95
2019-02-27T15:49:56.918Z,3.02
2019-02-27T15:52:24.290Z,3.00
2019-02-27T15:54:51.438Z,2.77
2019-02-27T15:57:18.683Z,3.50
2019-02-27T15:59:45.935Z,3.65
2019-02-27T16:02:13.094Z,3.58
2019-02-27T16:04:40.327Z,3.12
2019-02-27T16:07:07.576Z,3.42
2019-02-27T16:09:34.848Z,3.80
2019-02-27T16:12:02.114Z,2.90
2019-02-27T16:14:30.072Z,3.17
2019-02-27T16:16:57.558Z,3.17
2019-02-27T16:19:25.562Z,2.85
2019-02-27T16:21:56.853Z,3.12
2019-02-27T16:24:22.041Z,2.40
2019-02-27T16:26:49.305Z,3.12
2019-02-27T16:29:16.553Z,3.23
2019-02-27T16:31:43.889Z,3.12
2019-02-27T16:34:13.310Z,2.98
2019-02-27T16:36:40.568Z,3.67
2019-02-27T16:39:08.376Z,3.27
2019-02-27T16:41:35.695Z,3.45
2019-02-27T16:44:03.286Z,3.40
2019-02-27T16:46:30.559Z,3.47
2019-02-27T16:48:57.843Z,3.20
2019-02-27T16:51:26.902Z,3.20
2019-02-27T16:53:54.262Z,3.60
2019-02-27T16:56:21.428Z,2.80
2019-02-27T16:58:48.606Z,3.13
2019-02-27T17:01:15.858Z,3.50
2019-02-27T17:03:45.075Z,3.10
2019-02-27T17:06:14.144Z,3.37
2019-02-27T17:08:41.410Z,3.53
2019-02-27T17:11:08.573Z,3.57
2019-02-27T17:13:35.834Z,5.43
2019-02-27T17:16:03.415Z,11.07
2019-02-27T17:18:30.752Z,5.87
2019-02-27T17:20:57.974Z,4.73
2019-02-27T17:23:25.109Z,4.07
2019-02-27T17:25:52.376Z,4.23
2019-02-27T17:28:19.611Z,3.90
2019-02-27T17:30:46.745Z,4.57
2019-02-27T17:33:15.766Z,3.53
2019-02-27T17:35:43.065Z,4.07
2019-02-27T17:38:10.847Z,3.57
2019-02-27T17:40:39.380Z,3.73
2019-02-27T17:43:06.953Z,3.13
2019-02-27T17:45:34.165Z,4.10
2019-02-27T17:48:01.433Z,3.50
2019-02-27T17:50:31.733Z,3.40
2019-02-27T17:52:57.812Z,3.17
2019-02-27T17:55:25.074Z,3.10
2019-02-27T17:57:55.280Z,3.07
2019-02-27T18:00:35.619Z,3.60
2019-02-27T18:03:05.034Z,3.57
2019-02-27T18:05:31.794Z,3.60
2019-02-27T18:07:59.062Z,3.80
2019-02-27T18:10:26.326Z,4.00
2019-02-27T18:12:53.618Z,4.80
2019-02-27T18:15:21.299Z,5.07
2019-02-27T18:17:48.640Z,5.20
2019-02-27T18:20:16.069Z,4.93
2019-02-27T18:22:45.859Z,5.07
2019-02-27T18:25:12.441Z,4.97
2019-02-27T18:27:39.591Z,4.30
2019-02-27T18:30:08.096Z,4.13
2019-02-27T18:32:39.762Z,4.10
2019-02-27T18:35:05.133Z,3.53
2019-02-27T18:37:32.392Z,3.83
2019-02-27T18:39:59.551Z,3.53
2019-02-27T18:42:26.834Z,3.93
2019-02-27T18:44:54.156Z,3.70
2019-02-27T18:47:21.438Z,4.33
2019-02-27T18:49:48.998Z,4.20
2019-02-27T18:52:21.423Z,3.43
2019-02-27T18:54:46.990Z,3.67
2019-02-27T18:57:14.328Z,3.47
2019-02-27T18:59:41.598Z,3.90
2019-02-27T19:02:08.784Z,3.90
2019-02-27T19:04:36.085Z,5.00
2019-02-27T19:07:03.741Z,4.23
2019-02-27T19:09:32.472Z,5.10
2019-02-27T19:12:00.134Z,4.43
2019-02-27T19:14:27.353Z,5.73
2019-02-27T19:16:55.163Z,4.70
2019-02-27T19:19:23.086Z,5.33
2019-02-27T19:21:50.352Z,5.13
2019-02-27T19:24:17.610Z,6.20
2019-02-27T19:26:45.095Z,6.03
2019-02-27T19:29:12.440Z,8.10
2019-02-27T19:31:39.709Z,5.53
2019-02-27T19:34:07.466Z,5.70
2019-02-27T19:36:36.156Z,5.10
2019-02-27T19:39:04.770Z,4.50
2019-02-27T19:41:31.957Z,4.83
2019-02-27T19:43:59.240Z,5.03
2019-02-27T19:46:26.486Z,13.07
2019-02-27T19:48:53.657Z,8.30
2019-02-27T19:51:20.988Z,5.87
2019-02-27T19:53:48.367Z,5.10
2019-02-27T19:56:15.796Z,4.40
2019-02-27T19:58:42.927Z,4.87
2019-02-27T20:01:10.200Z,4.10
2019-02-27T20:03:37.475Z,4.03
2019-02-27T20:06:04.799Z,3.87
2019-02-27T20:08:32.099Z,4.13
2019-02-27T20:11:05.535Z,4.20
2019-02-27T20:13:28.841Z,4.13
2019-02-27T20:15:56.232Z,4.10
2019-02-27T20:18:24.393Z,4.17
2019-02-27T20:20:51.905Z,4.00
2019-02-27T20:23:19.101Z,3.30
2019-02-27T20:25:46.451Z,3.90
2019-02-27T20:28:13.790Z,4.27
2019-02-27T20:30:41.091Z,3.50
2019-02-27T20:33:08.341Z,3.37
2019-02-27T20:35:35.616Z,4.03
2019-02-27T20:38:03.258Z,3.77
2019-02-27T20:40:33.758Z,3.63
2019-02-27T20:42:59.847Z,3.60
2019-02-27T20:45:27.004Z,3.80
2019-02-27T20:47:57.724Z,3.77
2019-02-27T20:50:34.520Z,4.10
2019-02-27T20:52:55.932Z,4.40
2019-02-27T20:55:23.472Z,4.40
2019-02-27T20:57:50.843Z,4.40
2019-02-27T21:00:18.287Z,4.60
2019-02-27T21:02:45.618Z,5.20
2019-02-27T21:05:13.032Z,4.67
2019-02-27T21:07:40.304Z,5.13
2019-02-27T21:10:10.383Z,4.67
2019-02-27T21:12:40.666Z,5.43
2019-02-27T21:15:07.410Z,5.03
2019-02-27T21:17:34.691Z,5.17
2019-02-27T21:20:02.078Z,4.77
2019-02-27T21:22:29.456Z,4.33
2019-02-27T21:24:56.623Z,5.10
2019-02-27T21:27:23.859Z,4.40
2019-02-27T21:29:51.316Z,5.23
2019-02-27T21:32:18.596Z,5.60
2019-02-27T21:34:45.982Z,5.03
2019-02-27T21:37:13.257Z,6.13
2019-02-27T21:39:40.625Z,6.57
2019-02-27T21:44:31.922Z,4.60
2019-02-27T21:46:59.196Z,4.70
2019-02-27T21:49:29.144Z,4.47
2019-02-27T21:51:55.672Z,4.10
2019-02-27T21:54:22.994Z,3.90
2019-02-27T21:56:51.855Z,3.77
2019-02-27T21:59:19.328Z,3.67
2019-02-27T22:01:46.562Z,3.67
2019-02-27T22:04:13.829Z,4.13
2019-02-27T22:06:41.054Z,3.90
2019-02-27T22:09:10.119Z,3.53
2019-02-27T22:11:37.606Z,3.40
2019-02-27T22:14:04.995Z,3.20
2019-02-27T22:16:32.248Z,2.90
2019-02-27T22:18:59.604Z,2.90
2019-02-27T22:21:26.777Z,3.43
2019-02-27T22:23:53.986Z,2.93
2019-02-27T22:26:21.248Z,2.90
2019-02-27T22:28:51.191Z,2.90
2019-02-27T22:31:17.640Z,3.33
2019-02-27T22:33:44.952Z,2.60
2019-02-27T22:36:12.727Z,3.00
2019-02-27T22:38:40.787Z,3.17
2019-02-27T22:41:09.536Z,2.90
2019-02-27T22:43:37.094Z,2.80
2019-02-27T22:46:04.253Z,3.17
2019-02-27T22:48:31.567Z,3.40
2019-02-27T22:50:58.756Z,3.70
2019-02-27T22:53:26.219Z,2.97
2019-02-27T22:55:55.058Z,3.43
2019-02-27T22:58:22.234Z,3.50
2019-02-27T23:01:14.977Z,3.57
2019-02-27T23:03:57.783Z,3.40
2019-02-27T23:06:25.591Z,3.00
2019-02-27T23:08:54.438Z,3.30
2019-02-27T23:11:21.881Z,3.27
2019-02-27T23:13:49.207Z,3.30
2019-02-27T23:16:17.097Z,3.10
2019-02-27T23:18:44.379Z,3.60
2019-02-27T23:21:11.742Z,2.87
2019-02-27T23:23:39.093Z,3.50
2019-02-27T23:26:06.339Z,3.50
2019-02-27T23:28:34.724Z,3.50
2019-02-27T23:31:02.752Z,3.00
2019-02-27T23:33:29.926Z,3.03
2019-02-27T23:35:57.178Z,3.43
2019-02-27T23:38:24.338Z,3.27
2019-02-27T23:40:51.458Z,3.27
2019-02-27T23:43:19.725Z,3.13
2019-02-27T23:45:47.172Z,3.23
2019-02-27T23:48:14.440Z,2.80
2019-02-27T23:50:42.635Z,3.20
2019-02-27T23:53:10.585Z,2.67
2019-02-27T23:55:38.016Z,2.77
2019-02-27T23:58:05.284Z,3.43
